createdAt,value
2023-05-17T00:01:51.070Z,1.93
2023-05-17T00:04:37.743Z,2.33
2023-05-17T00:07:24.371Z,2.03
2023-05-17T00:10:12.121Z,1.80
2023-05-17T00:12:58.927Z,2.27
2023-05-17T00:15:46.993Z,1.93
2023-05-17T00:18:33.946Z,2.33
2023-05-17T00:21:20.856Z,1.73
2023-05-17T00:24:09.339Z,1.77
2023-05-17T00:26:56.015Z,1.70
2023-05-17T00:29:43.015Z,1.90
2023-05-17T00:32:32.327Z,1.80
2023-05-17T00:35:18.678Z,1.70
2023-05-17T00:38:05.809Z,2.10
2023-05-17T00:40:54.259Z,2.07
2023-05-17T00:43:41.477Z,1.70
2023-05-17T00:46:29.498Z,1.70
2023-05-17T00:49:20.743Z,2.30
2023-05-17T00:52:08.114Z,2.27
2023-05-17T00:54:55.654Z,3.07
2023-05-17T00:57:42.355Z,2.23
2023-05-17T01:00:29.038Z,2.20
2023-05-17T01:03:16.626Z,2.10
2023-05-17T01:06:06.262Z,2.40
2023-05-17T01:08:55.292Z,2.13
2023-05-17T01:11:56.054Z,2.67
2023-05-17T01:14:52.666Z,2.37
2023-05-17T01:17:50.491Z,2.50
2023-05-17T01:20:41.964Z,2.77
2023-05-17T01:23:46.388Z,2.63
2023-05-17T01:26:40.207Z,2.23
2023-05-17T01:29:29.762Z,2.60
2023-05-17T01:32:21.487Z,3.17
2023-05-17T01:35:13.651Z,2.50
2023-05-17T01:38:02.880Z,2.47
2023-05-17T01:41:00.406Z,3.00
2023-05-17T01:44:01.641Z,2.40
2023-05-17T01:46:53.992Z,2.87
2023-05-17T01:49:42.855Z,2.87
2023-05-17T01:52:36.645Z,2.60
2023-05-17T01:55:28.195Z,2.73
2023-05-17T01:58:17.302Z,3.03
2023-05-17T02:01:07.450Z,2.97
2023-05-17T02:03:54.552Z,2.90
2023-05-17T02:06:41.242Z,3.43
2023-05-17T02:09:28.431Z,2.77
2023-05-17T02:12:15.235Z,3.20
2023-05-17T02:15:01.796Z,3.10
2023-05-17T02:17:50.357Z,3.47
2023-05-17T02:20:37.160Z,3.40
2023-05-17T02:23:25.332Z,3.10
2023-05-17T02:26:15.308Z,3.70
2023-05-17T02:29:01.968Z,3.07
2023-05-17T02:31:51.448Z,3.27
2023-05-17T02:34:39.599Z,3.23
2023-05-17T02:37:27.098Z,3.30
2023-05-17T02:40:20.400Z,3.60
2023-05-17T02:43:12.709Z,4.00
2023-05-17T02:46:00.312Z,3.20
2023-05-17T02:48:48.052Z,3.53
2023-05-17T02:51:36.318Z,3.87
2023-05-17T02:54:24.931Z,3.63
2023-05-17T02:57:12.643Z,3.27
2023-05-17T02:59:59.232Z,3.57
2023-05-17T03:02:47.201Z,3.67
2023-05-17T03:05:35.057Z,3.83
2023-05-17T03:08:22.945Z,3.67
2023-05-17T03:11:09.906Z,3.53
2023-05-17T03:13:56.863Z,4.03
2023-05-17T03:16:46.812Z,3.77
2023-05-17T03:19:34.709Z,4.23
2023-05-17T03:22:21.606Z,3.40
2023-05-17T03:25:10.703Z,3.73
2023-05-17T03:27:57.206Z,3.57
2023-05-17T03:30:44.581Z,3.33
2023-05-17T03:33:32.682Z,3.30
2023-05-17T03:36:20.295Z,3.43
2023-05-17T03:39:07.467Z,3.40
2023-05-17T03:41:57.340Z,3.40
2023-05-17T03:44:45.095Z,4.03
2023-05-17T03:47:33.604Z,3.87
2023-05-17T03:50:22.812Z,4.50
2023-05-17T03:53:13.224Z,3.60
2023-05-17T03:55:59.833Z,3.57
2023-05-17T03:58:51.196Z,3.93
2023-05-17T04:02:03.379Z,4.17
2023-05-17T04:04:53.713Z,3.20
2023-05-17T04:07:43.920Z,3.67
2023-05-17T04:10:37.144Z,3.97
2023-05-17T04:13:24.815Z,3.87
2023-05-17T04:16:16.088Z,4.03
2023-05-17T04:19:05.788Z,4.43
2023-05-17T04:21:55.652Z,3.67
2023-05-17T04:24:48.111Z,3.87
2023-05-17T04:27:35.005Z,4.07
2023-05-17T04:30:24.255Z,3.67
2023-05-17T04:33:14.468Z,4.13
2023-05-17T04:36:04.219Z,3.47
2023-05-17T04:38:52.327Z,3.70
2023-05-17T04:41:46.059Z,3.57
2023-05-17T04:44:43.190Z,3.70
2023-05-17T04:47:31.901Z,3.70
2023-05-17T04:50:22.713Z,3.87
2023-05-17T04:53:13.410Z,4.03
2023-05-17T04:56:00.764Z,3.60
2023-05-17T04:58:47.951Z,3.70
2023-05-17T05:01:37.229Z,3.33
2023-05-17T05:04:26.851Z,4.03
2023-05-17T05:07:23.537Z,3.73
2023-05-17T05:10:14.637Z,3.27
2023-05-17T05:13:06.758Z,4.27
2023-05-17T05:15:54.738Z,3.30
2023-05-17T05:18:42.834Z,3.77
2023-05-17T05:21:35.057Z,3.63
2023-05-17T05:24:29.412Z,3.50
2023-05-17T05:27:20.620Z,3.10
2023-05-17T05:30:09.955Z,3.43
2023-05-17T05:33:01.176Z,3.20
2023-05-17T05:35:49.741Z,3.03
2023-05-17T05:38:52.433Z,2.40
2023-05-17T05:41:49.595Z,2.83
2023-05-17T05:44:48.918Z,2.90
2023-05-17T05:47:45.048Z,3.03
2023-05-17T05:50:38.514Z,3.07
2023-05-17T05:53:38.842Z,3.83
2023-05-17T05:56:32.851Z,2.77
2023-05-17T05:59:23.568Z,2.97
2023-05-17T06:02:12.291Z,3.07
2023-05-17T06:05:01.154Z,3.30
2023-05-17T06:07:47.701Z,2.90
2023-05-17T06:10:36.849Z,2.80
2023-05-17T06:13:24.030Z,3.07
2023-05-17T06:16:21.672Z,2.87
2023-05-17T06:19:14.156Z,2.73
2023-05-17T06:22:01.183Z,2.90
2023-05-17T06:24:47.966Z,2.27
2023-05-17T06:27:37.125Z,2.70
2023-05-17T06:30:28.069Z,2.73
2023-05-17T06:33:22.023Z,3.00
2023-05-17T06:36:09.221Z,2.60
2023-05-17T06:39:00.321Z,2.23
2023-05-17T06:41:47.004Z,2.77
2023-05-17T06:44:47.916Z,2.77
2023-05-17T06:47:37.401Z,2.33
2023-05-17T06:50:35.952Z,2.30
2023-05-17T06:53:24.872Z,2.47
2023-05-17T06:56:11.335Z,2.23
2023-05-17T06:58:58.328Z,2.57
2023-05-17T07:01:45.085Z,2.30
2023-05-17T07:04:36.886Z,2.67
2023-05-17T07:07:26.819Z,2.00
2023-05-17T07:10:17.708Z,2.33
2023-05-17T07:13:06.746Z,2.63
2023-05-17T07:15:53.224Z,2.40
2023-05-17T07:18:40.014Z,3.07
2023-05-17T07:21:26.957Z,3.00
2023-05-17T07:24:17.396Z,2.20
2023-05-17T07:27:04.098Z,2.00
2023-05-17T07:29:53.106Z,2.20
2023-05-17T07:32:43.418Z,2.00
2023-05-17T07:35:31.343Z,2.00
2023-05-17T07:38:19.094Z,2.50
2023-05-17T07:41:11.916Z,1.80
2023-05-17T07:44:01.126Z,2.13
2023-05-17T07:46:50.138Z,2.13
2023-05-17T07:49:39.281Z,2.30
2023-05-17T07:52:27.190Z,1.60
2023-05-17T07:55:21.288Z,1.93
2023-05-17T07:58:14.203Z,2.10
2023-05-17T08:01:04.398Z,1.60
2023-05-17T08:03:51.364Z,2.23
2023-05-17T08:06:38.520Z,1.80
2023-05-17T08:09:25.253Z,2.43
2023-05-17T08:12:12.280Z,1.77
2023-05-17T08:15:00.441Z,1.93
2023-05-17T08:17:49.275Z,1.97
2023-05-17T08:20:37.805Z,1.67
2023-05-17T08:23:24.550Z,2.30
2023-05-17T08:26:13.095Z,1.80
2023-05-17T08:29:01.731Z,2.03
2023-05-17T08:31:50.057Z,1.40
2023-05-17T08:34:39.230Z,2.30
2023-05-17T08:37:27.277Z,1.70
2023-05-17T08:40:15.219Z,1.80
2023-05-17T08:43:03.466Z,2.07
2023-05-17T08:45:51.386Z,2.03
2023-05-17T08:48:50.922Z,1.60
2023-05-17T08:51:41.595Z,1.93
2023-05-17T08:54:30.092Z,2.13
2023-05-17T08:57:19.733Z,1.70
2023-05-17T09:00:14.686Z,1.90
2023-05-17T09:03:01.520Z,1.60
2023-05-17T09:05:57.339Z,1.90
2023-05-17T09:08:44.533Z,1.47
2023-05-17T09:11:33.969Z,1.50
2023-05-17T09:14:20.825Z,1.53
2023-05-17T09:17:08.880Z,1.40
2023-05-17T09:19:56.417Z,2.00
2023-05-17T09:22:46.900Z,1.90
2023-05-17T09:25:34.379Z,1.90
2023-05-17T09:28:21.420Z,2.07
2023-05-17T09:31:09.006Z,1.60
2023-05-17T09:33:58.396Z,1.30
2023-05-17T09:36:45.349Z,1.70
2023-05-17T09:39:33.616Z,2.00
2023-05-17T09:42:20.366Z,2.40
2023-05-17T09:45:12.167Z,1.97
2023-05-17T09:48:01.007Z,1.77
2023-05-17T09:50:49.466Z,1.80
2023-05-17T09:53:40.829Z,1.60
2023-05-17T09:56:31.007Z,1.90
2023-05-17T09:59:17.956Z,1.70
2023-05-17T10:02:32.938Z,1.67
2023-05-17T10:05:21.126Z,1.90
2023-05-17T10:08:08.585Z,2.07
2023-05-17T10:11:01.939Z,1.77
2023-05-17T10:14:01.717Z,1.53
2023-05-17T10:16:50.030Z,2.13
2023-05-17T10:19:38.059Z,1.50
2023-05-17T10:22:25.109Z,1.80
2023-05-17T10:25:12.661Z,2.20
2023-05-17T10:28:00.014Z,2.73
2023-05-17T10:30:54.070Z,1.80
2023-05-17T10:33:43.327Z,1.97
2023-05-17T10:36:32.455Z,1.63
2023-05-17T10:39:22.199Z,2.10
2023-05-17T10:42:15.290Z,1.87
2023-05-17T10:45:05.932Z,1.70
2023-05-17T10:47:58.907Z,1.63
2023-05-17T10:51:00.707Z,1.87
2023-05-17T10:54:11.820Z,1.83
2023-05-17T10:57:08.835Z,1.50
2023-05-17T11:00:00.003Z,2.03
2023-05-17T11:02:49.293Z,1.83
2023-05-17T11:05:45.364Z,1.53
2023-05-17T11:08:32.347Z,1.47
2023-05-17T11:11:22.259Z,2.53
2023-05-17T11:14:11.936Z,1.80
2023-05-17T11:16:58.669Z,1.63
2023-05-17T11:20:07.526Z,1.63
2023-05-17T11:22:59.572Z,1.50
2023-05-17T11:25:49.334Z,1.80
2023-05-17T11:28:36.106Z,1.90
2023-05-17T11:31:30.908Z,1.70
2023-05-17T11:34:21.868Z,1.73
2023-05-17T11:37:15.313Z,1.40
2023-05-17T11:40:08.879Z,1.53
2023-05-17T11:43:13.114Z,2.17
2023-05-17T11:46:02.559Z,2.07
2023-05-17T11:48:51.102Z,2.00
2023-05-17T11:51:38.455Z,1.87
2023-05-17T11:54:29.098Z,1.73
2023-05-17T11:57:23.725Z,1.77
2023-05-17T12:00:12.039Z,2.17
2023-05-17T12:03:19.972Z,2.10
2023-05-17T12:06:17.363Z,1.80
2023-05-17T12:09:07.206Z,1.90
2023-05-17T12:11:56.138Z,1.50
2023-05-17T12:14:45.751Z,1.93
2023-05-17T12:17:40.815Z,1.77
2023-05-17T12:20:33.941Z,1.53
2023-05-17T12:23:27.562Z,3.47
2023-05-17T12:26:22.332Z,2.50
2023-05-17T12:29:12.155Z,1.77
2023-05-17T12:32:05.444Z,2.00
2023-05-17T12:34:52.153Z,1.67
2023-05-17T12:37:43.413Z,1.33
2023-05-17T12:40:30.898Z,1.77
2023-05-17T12:43:31.950Z,2.00
2023-05-17T12:46:20.672Z,1.60
2023-05-17T12:49:12.171Z,1.70
2023-05-17T12:52:08.274Z,1.40
2023-05-17T12:54:57.282Z,1.50
2023-05-17T12:57:51.929Z,1.93
2023-05-17T13:00:38.804Z,2.00
2023-05-17T13:03:25.805Z,1.60
2023-05-17T13:06:16.508Z,1.87
2023-05-17T13:09:05.993Z,1.27
2023-05-17T13:11:53.432Z,1.73
2023-05-17T13:14:45.378Z,1.40
2023-05-17T13:17:44.954Z,1.63
2023-05-17T13:20:33.995Z,2.00
2023-05-17T13:23:27.143Z,1.60
2023-05-17T13:26:16.301Z,1.50
2023-05-17T13:29:05.882Z,1.40
2023-05-17T13:31:53.548Z,1.60
2023-05-17T13:34:43.179Z,1.60
2023-05-17T13:37:30.125Z,1.90
2023-05-17T13:40:19.747Z,1.50
2023-05-17T13:43:10.471Z,2.80
2023-05-17T13:45:59.098Z,2.27
2023-05-17T13:48:47.673Z,1.70
2023-05-17T13:51:36.821Z,1.40
2023-05-17T13:54:23.788Z,2.23
2023-05-17T13:57:17.562Z,2.03
2023-05-17T14:00:07.139Z,1.97
2023-05-17T14:02:53.931Z,1.80
2023-05-17T14:05:43.676Z,1.77
2023-05-17T14:08:30.316Z,1.87
2023-05-17T14:11:19.408Z,1.50
2023-05-17T14:14:09.677Z,1.60
2023-05-17T14:16:56.330Z,1.93
2023-05-17T14:19:43.106Z,2.00
2023-05-17T14:22:29.876Z,2.37
2023-05-17T14:25:19.271Z,1.70
2023-05-17T14:28:05.996Z,1.70
2023-05-17T14:30:59.126Z,1.50
2023-05-17T14:33:46.123Z,1.80
2023-05-17T14:36:35.796Z,1.50
2023-05-17T14:39:22.410Z,1.90
2023-05-17T14:42:09.306Z,1.90
2023-05-17T14:44:56.117Z,2.00
2023-05-17T14:47:44.556Z,2.00
2023-05-17T14:50:33.997Z,1.70
2023-05-17T14:53:20.863Z,1.80
2023-05-17T14:56:08.186Z,2.00
2023-05-17T14:58:54.873Z,1.70
2023-05-17T15:01:42.393Z,2.23
2023-05-17T15:04:33.240Z,1.87
2023-05-17T15:07:19.916Z,1.93
2023-05-17T15:10:08.515Z,2.07
2023-05-17T15:12:57.475Z,2.20
2023-05-17T15:15:46.926Z,1.80
2023-05-17T15:18:35.777Z,1.67
2023-05-17T15:21:26.621Z,1.53
2023-05-17T15:24:17.749Z,2.10
2023-05-17T15:27:15.638Z,1.47
2023-05-17T15:30:11.291Z,1.50
2023-05-17T15:33:02.733Z,1.70
2023-05-17T15:35:50.726Z,1.70
2023-05-17T15:38:40.227Z,1.53
2023-05-17T15:41:32.539Z,2.10
2023-05-17T15:44:27.033Z,1.60
2023-05-17T15:47:14.210Z,1.73
2023-05-17T15:50:02.365Z,1.70
2023-05-17T15:52:51.300Z,1.80
2023-05-17T15:55:41.890Z,1.60
2023-05-17T15:58:33.484Z,1.60
2023-05-17T16:01:20.614Z,1.90
2023-05-17T16:04:11.878Z,1.77
2023-05-17T16:07:02.774Z,1.57
2023-05-17T16:09:51.550Z,1.70
2023-05-17T16:12:54.863Z,1.83
2023-05-17T16:15:43.214Z,1.63
2023-05-17T16:18:33.251Z,1.60
2023-05-17T16:21:27.434Z,1.50
2023-05-17T16:24:15.209Z,1.97
2023-05-17T16:27:02.200Z,2.07
2023-05-17T16:29:51.626Z,1.83
2023-05-17T16:32:41.342Z,1.43
2023-05-17T16:35:31.707Z,1.70
2023-05-17T16:38:19.259Z,1.67
2023-05-17T16:41:06.183Z,1.53
2023-05-17T16:43:55.548Z,1.53
2023-05-17T16:46:50.571Z,1.80
2023-05-17T16:49:41.463Z,1.70
2023-05-17T16:52:30.542Z,1.60
2023-05-17T16:55:19.438Z,1.73
2023-05-17T16:58:08.533Z,1.90
2023-05-17T17:01:02.767Z,1.77
2023-05-17T17:03:50.855Z,1.73
2023-05-17T17:06:40.377Z,1.77
2023-05-17T17:09:26.924Z,2.00
2023-05-17T17:12:24.710Z,1.70
2023-05-17T17:15:13.297Z,1.80
2023-05-17T17:18:00.330Z,1.83
2023-05-17T17:20:49.732Z,1.83
2023-05-17T17:23:39.102Z,1.80
2023-05-17T17:26:26.373Z,1.93
2023-05-17T17:29:17.309Z,1.60
2023-05-17T17:32:05.025Z,1.67
2023-05-17T17:34:52.386Z,1.70
2023-05-17T17:37:43.025Z,1.50
2023-05-17T17:40:30.199Z,1.73
2023-05-17T17:43:17.303Z,1.80
2023-05-17T17:46:06.982Z,1.90
2023-05-17T17:48:56.555Z,1.73
2023-05-17T17:51:44.006Z,1.80
2023-05-17T17:54:35.623Z,1.70
2023-05-17T17:57:23.100Z,1.80
2023-05-17T18:00:21.523Z,2.77
2023-05-17T18:03:12.385Z,1.63
2023-05-17T18:05:58.882Z,1.43
2023-05-17T18:08:45.576Z,1.60
2023-05-17T18:11:33.841Z,1.70
2023-05-17T18:14:21.960Z,2.13
2023-05-17T18:17:10.626Z,1.70
2023-05-17T18:19:59.457Z,1.60
2023-05-17T18:22:48.423Z,2.00
2023-05-17T18:25:35.134Z,1.90
2023-05-17T18:28:37.541Z,1.47
2023-05-17T18:31:32.096Z,1.60
2023-05-17T18:34:33.488Z,1.60
2023-05-17T18:37:20.308Z,1.60
2023-05-17T18:40:08.448Z,1.70
2023-05-17T18:42:57.702Z,1.43
2023-05-17T18:45:45.726Z,1.60
2023-05-17T18:48:41.017Z,1.53
2023-05-17T18:51:30.150Z,1.80
2023-05-17T18:54:18.998Z,1.87
2023-05-17T18:57:08.353Z,2.10
2023-05-17T18:59:55.317Z,1.83
2023-05-17T19:02:43.734Z,1.70
2023-05-17T19:05:34.472Z,1.70
2023-05-17T19:08:21.484Z,1.80
2023-05-17T19:11:08.425Z,1.73
2023-05-17T19:13:59.509Z,1.90
2023-05-17T19:16:48.295Z,2.60
2023-05-17T19:19:43.634Z,1.70
2023-05-17T19:22:33.173Z,2.00
2023-05-17T19:25:22.319Z,2.13
2023-05-17T19:28:11.568Z,1.90
2023-05-17T19:31:00.593Z,1.80
2023-05-17T19:33:47.623Z,2.20
2023-05-17T19:36:35.903Z,2.70
2023-05-17T19:39:24.843Z,3.27
2023-05-17T19:42:11.463Z,2.30
2023-05-17T19:45:05.366Z,2.33
2023-05-17T19:47:54.681Z,2.47
2023-05-17T19:50:52.874Z,2.10
2023-05-17T19:53:53.628Z,2.90
2023-05-17T19:56:43.884Z,4.70
2023-05-17T19:59:34.943Z,6.83
2023-05-17T20:02:23.268Z,5.70
2023-05-17T20:05:12.632Z,4.77
2023-05-17T20:07:59.354Z,3.83
2023-05-17T20:10:47.834Z,3.10
2023-05-17T20:13:40.291Z,3.10
2023-05-17T20:16:28.147Z,2.80
2023-05-17T20:19:17.046Z,2.77
2023-05-17T20:22:05.963Z,2.40
2023-05-17T20:24:57.683Z,3.43
2023-05-17T20:27:49.219Z,2.80
2023-05-17T20:30:38.465Z,3.77
2023-05-17T20:33:27.720Z,2.77
2023-05-17T20:36:15.403Z,2.60
2023-05-17T20:39:02.319Z,2.73
2023-05-17T20:41:53.842Z,2.80
2023-05-17T20:44:44.228Z,2.87
2023-05-17T20:47:33.951Z,2.83
2023-05-17T20:50:22.822Z,3.03
2023-05-17T20:53:11.686Z,3.00
2023-05-17T20:55:59.085Z,2.77
2023-05-17T20:58:46.124Z,2.77
2023-05-17T21:01:34.376Z,2.93
2023-05-17T21:04:21.281Z,2.70
2023-05-17T21:07:10.682Z,2.83
2023-05-17T21:10:00.248Z,2.80
2023-05-17T21:13:16.635Z,3.53
2023-05-17T21:16:09.070Z,2.80
2023-05-17T21:19:00.622Z,2.90
2023-05-17T21:21:50.097Z,2.60
2023-05-17T21:24:36.662Z,3.03
2023-05-17T21:27:24.446Z,3.03
2023-05-17T21:30:11.667Z,2.80
2023-05-17T21:33:00.871Z,3.10
2023-05-17T21:35:48.822Z,2.90
2023-05-17T21:38:38.720Z,3.30
2023-05-17T21:41:28.240Z,3.23
2023-05-17T21:47:15.953Z,3.50
2023-05-17T21:50:05.511Z,3.23
2023-05-17T21:52:53.840Z,3.23
2023-05-17T21:55:51.247Z,3.00
2023-05-17T21:58:49.769Z,3.13
2023-05-17T22:01:36.923Z,3.83
2023-05-17T22:04:23.918Z,3.20
2023-05-17T22:07:19.145Z,3.03
2023-05-17T22:10:17.952Z,3.27
2023-05-17T22:13:06.258Z,3.20
2023-05-17T22:15:58.283Z,2.67
2023-05-17T22:18:47.989Z,2.97
2023-05-17T22:21:38.816Z,2.37
2023-05-17T22:24:26.888Z,2.90
2023-05-17T22:27:14.876Z,2.87
2023-05-17T22:30:01.533Z,2.90
2023-05-17T22:32:48.525Z,2.60
2023-05-17T22:35:36.354Z,2.90
2023-05-17T22:38:24.595Z,2.47
2023-05-17T22:41:11.997Z,2.40
2023-05-17T22:44:03.587Z,3.00
2023-05-17T22:46:50.441Z,2.60
2023-05-17T22:49:37.341Z,2.50
2023-05-17T22:52:23.815Z,2.10
2023-05-17T22:55:11.408Z,2.33
2023-05-17T22:57:59.078Z,2.43
2023-05-17T23:00:52.969Z,2.83
2023-05-17T23:03:39.780Z,2.50
2023-05-17T23:06:26.763Z,2.30
2023-05-17T23:09:14.089Z,2.47
2023-05-17T23:12:05.760Z,2.50
2023-05-17T23:14:55.520Z,2.37
2023-05-17T23:17:46.721Z,2.50
2023-05-17T23:20:36.912Z,2.70
2023-05-17T23:23:26.278Z,2.27
2023-05-17T23:26:14.754Z,2.70
2023-05-17T23:29:03.376Z,3.00
2023-05-17T23:32:03.766Z,2.57
2023-05-17T23:34:54.280Z,2.70
2023-05-17T23:37:55.035Z,2.30
2023-05-17T23:40:57.309Z,2.40
2023-05-17T23:43:44.536Z,2.60
2023-05-17T23:46:53.789Z,2.40
2023-05-17T23:49:46.529Z,2.10
2023-05-17T23:52:40.820Z,3.13
2023-05-17T23:55:27.732Z,2.17
2023-05-17T23:58:16.723Z,3.17
